createdAt,value
2018-05-26T00:00:33.736Z,10.30
2018-05-26T00:03:01.252Z,13.57
2018-05-26T00:05:27.846Z,11.57
2018-05-26T00:07:54.389Z,16.67
2018-05-26T00:10:21.069Z,15.33
2018-05-26T00:12:48.367Z,17.33
2018-05-26T00:15:15.179Z,14.70
2018-05-26T00:17:42.221Z,14.60
2018-05-26T00:20:08.762Z,12.67
2018-05-26T00:22:35.421Z,8.67
2018-05-26T00:25:01.986Z,16.10
2018-05-26T00:27:28.795Z,16.90
2018-05-26T00:29:55.331Z,12.57
2018-05-26T00:32:21.938Z,15.20
2018-05-26T00:34:48.579Z,15.10
2018-05-26T00:37:15.317Z,13.10
2018-05-26T00:39:42.172Z,19.47
2018-05-26T00:42:09.091Z,23.20
2018-05-26T00:44:36.253Z,16.20
2018-05-26T00:47:02.786Z,17.33
2018-05-26T00:49:29.500Z,15.43
2018-05-26T00:51:55.944Z,15.80
2018-05-26T00:54:23.743Z,19.17
2018-05-26T00:56:50.511Z,20.80
2018-05-26T00:59:16.973Z,14.67
2018-05-26T01:01:43.739Z,16.63
2018-05-26T01:04:10.394Z,29.10
2018-05-26T01:06:37.447Z,28.20
2018-05-26T01:09:05.477Z,20.50
2018-05-26T01:11:31.938Z,21.73
2018-05-26T01:13:59.173Z,27.50
2018-05-26T01:16:25.822Z,23.53
2018-05-26T01:19:15.579Z,17.70
2018-05-26T01:21:42.065Z,23.77
2018-05-26T01:24:08.765Z,18.30
2018-05-26T01:26:35.274Z,27.17
2018-05-26T01:29:01.933Z,22.80
2018-05-26T01:31:29.259Z,18.37
2018-05-26T01:33:55.706Z,27.70
2018-05-26T01:36:22.211Z,18.07
2018-05-26T01:38:48.720Z,30.60
2018-05-26T01:41:16.137Z,28.37
2018-05-26T01:43:42.890Z,26.23
2018-05-26T01:46:09.441Z,30.87
2018-05-26T01:48:35.923Z,27.33
2018-05-26T01:51:02.438Z,28.70
2018-05-26T01:53:28.837Z,27.30
2018-05-26T01:55:55.315Z,23.13
2018-05-26T01:58:21.949Z,40.67
2018-05-26T02:00:48.399Z,31.97
2018-05-26T02:03:14.839Z,28.00
2018-05-26T02:05:41.302Z,32.53
2018-05-26T02:08:07.828Z,32.17
2018-05-26T02:10:35.908Z,29.70
2018-05-26T02:13:02.563Z,38.83
2018-05-26T02:15:30.010Z,37.27
2018-05-26T02:17:56.655Z,31.67
2018-05-26T02:20:23.147Z,25.70
2018-05-26T02:22:50.005Z,35.63
2018-05-26T02:25:17.127Z,39.47
2018-05-26T02:27:44.023Z,38.80
2018-05-26T02:30:10.633Z,37.40
2018-05-26T02:32:37.583Z,31.30
2018-05-26T02:35:04.209Z,36.40
2018-05-26T02:37:30.805Z,40.97
2018-05-26T02:39:57.457Z,35.90
2018-05-26T02:42:24.050Z,40.43
2018-05-26T02:44:50.501Z,37.73
2018-05-26T02:47:18.118Z,46.97
2018-05-26T02:49:44.832Z,33.20
2018-05-26T02:52:11.482Z,36.63
2018-05-26T02:54:38.039Z,32.07
2018-05-26T02:57:04.501Z,31.73
2018-05-26T02:59:31.675Z,41.00
2018-05-26T03:01:58.311Z,40.23
2018-05-26T03:04:31.150Z,41.97
2018-05-26T03:07:04.437Z,34.87
2018-05-26T03:09:37.029Z,52.60
2018-05-26T03:12:09.475Z,52.43
2018-05-26T03:14:42.039Z,40.50
2018-05-26T03:17:12.521Z,48.37
2018-05-26T03:19:39.148Z,43.83
2018-05-26T03:22:05.769Z,51.87
2018-05-26T03:24:32.480Z,56.33
2018-05-26T03:26:59.161Z,52.23
2018-05-26T03:29:25.856Z,47.40
2018-05-26T03:31:52.567Z,47.13
2018-05-26T03:34:19.113Z,42.90
2018-05-26T03:36:45.703Z,43.27
2018-05-26T03:39:12.187Z,39.33
2018-05-26T03:41:38.621Z,39.60
2018-05-26T03:44:05.189Z,43.23
2018-05-26T03:46:31.781Z,36.77
2018-05-26T03:48:58.384Z,33.43
2018-05-26T03:51:25.020Z,32.47
2018-05-26T03:53:52.135Z,37.50
2018-05-26T03:56:30.847Z,33.77
2018-05-26T03:59:09.514Z,30.90
2018-05-26T04:01:36.251Z,25.47
2018-05-26T04:04:02.653Z,39.90
2018-05-26T04:06:29.947Z,26.80
2018-05-26T04:08:58.036Z,29.70
2018-05-26T04:11:24.759Z,25.77
2018-05-26T04:13:51.483Z,29.67
2018-05-26T04:16:18.192Z,26.17
2018-05-26T04:18:44.879Z,25.83
2018-05-26T04:21:11.612Z,29.80
2018-05-26T04:23:38.920Z,29.43
2018-05-26T04:26:05.652Z,26.73
2018-05-26T04:28:32.354Z,24.60
2018-05-26T04:30:59.081Z,29.17
2018-05-26T04:33:25.784Z,23.43
2018-05-26T04:35:53.408Z,24.77
2018-05-26T04:38:20.300Z,22.43
2018-05-26T04:40:49.342Z,21.27
2018-05-26T04:43:17.421Z,24.73
2018-05-26T04:45:45.102Z,17.80
2018-05-26T04:48:12.425Z,19.07
2018-05-26T04:50:38.888Z,19.47
2018-05-26T04:53:05.353Z,19.63
2018-05-26T04:55:32.485Z,18.60
2018-05-26T04:57:58.820Z,15.00
2018-05-26T05:00:26.073Z,15.83
2018-05-26T05:02:53.665Z,14.97
2018-05-26T05:05:21.793Z,22.47
2018-05-26T05:07:48.328Z,20.37
2018-05-26T05:10:14.969Z,19.13
2018-05-26T05:12:41.931Z,21.23
2018-05-26T05:15:08.879Z,13.70
2018-05-26T05:17:36.848Z,18.40
2018-05-26T05:20:03.670Z,11.93
2018-05-26T05:22:30.762Z,11.63
2018-05-26T05:24:57.681Z,11.03
2018-05-26T05:27:24.387Z,16.70
2018-05-26T05:29:54.207Z,13.23
2018-05-26T05:32:21.690Z,15.90
2018-05-26T05:34:49.721Z,13.30
2018-05-26T05:37:17.041Z,24.13
2018-05-26T05:39:43.584Z,12.97
2018-05-26T05:42:11.026Z,20.40
2018-05-26T05:44:40.762Z,14.50
2018-05-26T05:47:08.550Z,16.10
2018-05-26T05:49:35.733Z,11.30
2018-05-26T05:52:03.402Z,19.17
2018-05-26T05:54:32.203Z,14.50
2018-05-26T05:56:59.635Z,20.43
2018-05-26T05:59:27.221Z,14.23
2018-05-26T06:01:55.029Z,28.03
2018-05-26T06:04:21.761Z,21.67
2018-05-26T06:06:49.237Z,13.40
2018-05-26T06:09:19.408Z,14.23
2018-05-26T06:11:46.025Z,12.43
2018-05-26T06:14:13.581Z,19.73
2018-05-26T06:16:40.578Z,17.80
2018-05-26T06:19:07.065Z,17.13
2018-05-26T06:21:33.556Z,12.90
2018-05-26T06:24:00.140Z,12.57
2018-05-26T06:26:27.792Z,12.53
2018-05-26T06:28:54.320Z,18.20
2018-05-26T06:31:21.635Z,15.03
2018-05-26T06:33:48.278Z,13.83
2018-05-26T06:36:15.695Z,12.43
2018-05-26T06:38:42.306Z,17.13
2018-05-26T06:41:09.464Z,19.20
2018-05-26T06:43:37.187Z,17.80
2018-05-26T06:46:03.823Z,12.93
2018-05-26T06:48:30.732Z,15.13
2018-05-26T06:50:57.869Z,10.30
2018-05-26T06:53:25.628Z,13.03
2018-05-26T06:55:52.274Z,14.40
2018-05-26T06:58:18.877Z,15.50
2018-05-26T07:00:45.699Z,10.57
2018-05-26T07:03:12.133Z,11.90
2018-05-26T07:05:39.388Z,30.07
2018-05-26T07:08:06.582Z,16.40
2018-05-26T07:10:33.711Z,21.73
2018-05-26T07:13:00.821Z,16.47
2018-05-26T07:15:28.644Z,17.33
2018-05-26T07:17:55.793Z,19.20
2018-05-26T07:20:23.667Z,20.03
2018-05-26T07:22:50.407Z,16.87
2018-05-26T07:25:17.404Z,13.40
2018-05-26T07:27:43.932Z,15.17
2018-05-26T07:30:10.402Z,15.27
2018-05-26T07:32:38.956Z,9.33
2018-05-26T07:35:05.589Z,24.20
2018-05-26T07:37:32.055Z,12.03
2018-05-26T07:39:59.044Z,16.13
2018-05-26T07:42:26.362Z,18.10
2018-05-26T07:44:52.882Z,12.20
2018-05-26T07:47:19.493Z,13.80
2018-05-26T07:49:46.044Z,9.70
2018-05-26T07:52:14.765Z,23.53
2018-05-26T07:54:43.077Z,11.77
2018-05-26T07:57:09.647Z,15.60
2018-05-26T07:59:36.149Z,13.10
2018-05-26T08:02:04.170Z,10.90
2018-05-26T08:04:31.397Z,17.30
2018-05-26T08:06:58.223Z,14.30
2018-05-26T08:09:26.163Z,12.37
2018-05-26T08:11:53.246Z,12.60
2018-05-26T08:14:20.992Z,10.57
2018-05-26T08:19:21.992Z,16.97
2018-05-26T08:21:57.755Z,16.30
2018-05-26T08:24:24.273Z,9.57
2018-05-26T08:26:50.982Z,10.70
2018-05-26T08:29:17.469Z,16.73
2018-05-26T08:31:44.723Z,12.60
2018-05-26T08:34:13.259Z,17.60
2018-05-26T08:36:41.035Z,11.20
2018-05-26T08:39:08.037Z,12.60
2018-05-26T08:41:35.673Z,14.60
2018-05-26T08:44:02.400Z,14.50
2018-05-26T08:46:29.832Z,12.67
2018-05-26T08:48:59.727Z,8.27
2018-05-26T08:51:42.427Z,14.60
2018-05-26T08:54:09.868Z,15.00
2018-05-26T08:56:38.616Z,20.33
2018-05-26T08:59:06.520Z,12.03
2018-05-26T09:01:34.638Z,8.37
2018-05-26T09:04:05.539Z,16.50
2018-05-26T09:06:32.057Z,16.13
2018-05-26T09:09:01.197Z,15.57
2018-05-26T09:11:29.490Z,11.57
2018-05-26T09:13:58.580Z,15.20
2018-05-26T09:16:25.592Z,10.17
2018-05-26T09:18:54.362Z,11.97
2018-05-26T09:21:21.657Z,14.57
2018-05-26T09:23:48.229Z,14.93
2018-05-26T09:26:15.525Z,9.87
2018-05-26T09:28:43.462Z,11.30
2018-05-26T09:31:10.031Z,9.20
2018-05-26T09:33:36.866Z,9.97
2018-05-26T09:36:03.418Z,11.43
2018-05-26T09:38:30.420Z,11.63
2018-05-26T09:40:57.257Z,14.23
2018-05-26T09:43:24.741Z,10.17
2018-05-26T09:45:53.753Z,15.10
2018-05-26T09:48:21.442Z,8.07
2018-05-26T09:50:48.652Z,24.53
2018-05-26T09:53:15.312Z,13.47
2018-05-26T09:55:42.369Z,12.27
2018-05-26T09:58:08.996Z,10.73
2018-05-26T10:00:35.449Z,11.23
2018-05-26T10:03:03.099Z,11.83
2018-05-26T10:05:29.645Z,12.00
2018-05-26T10:07:57.335Z,12.40
2018-05-26T10:10:23.929Z,8.50
2018-05-26T10:12:50.512Z,11.63
2018-05-26T10:15:16.981Z,7.23
2018-05-26T10:17:44.246Z,7.73
2018-05-26T10:20:10.782Z,12.90
2018-05-26T10:22:37.853Z,14.53
2018-05-26T10:25:04.743Z,8.50
2018-05-26T10:27:32.321Z,10.30
2018-05-26T10:29:59.577Z,13.47
2018-05-26T10:32:33.091Z,14.57
2018-05-26T10:35:00.984Z,9.00
2018-05-26T10:37:27.431Z,6.67
2018-05-26T10:39:53.949Z,8.60
2018-05-26T10:42:20.434Z,12.80
2018-05-26T10:44:47.241Z,7.53
2018-05-26T10:47:15.410Z,12.10
2018-05-26T10:49:41.790Z,11.17
2018-05-26T10:52:08.733Z,12.73
2018-05-26T10:54:38.795Z,16.90
2018-05-26T10:57:11.225Z,14.83
2018-05-26T10:59:40.067Z,10.90
2018-05-26T11:02:07.190Z,7.23
2018-05-26T11:04:33.998Z,8.23
2018-05-26T11:07:00.927Z,8.60
2018-05-26T11:09:27.483Z,8.23
2018-05-26T11:11:56.464Z,11.23
2018-05-26T11:14:23.926Z,10.60
2018-05-26T11:16:52.002Z,7.77
2018-05-26T11:19:19.261Z,10.53
2018-05-26T11:21:47.440Z,9.30
2018-05-26T11:24:15.163Z,10.53
2018-05-26T11:26:41.770Z,6.47
2018-05-26T11:29:08.722Z,9.40
2018-05-26T11:31:35.225Z,7.50
2018-05-26T11:34:01.738Z,8.80
2018-05-26T11:36:28.385Z,10.00
2018-05-26T11:38:56.538Z,11.07
2018-05-26T11:41:25.407Z,10.53
2018-05-26T11:43:52.247Z,8.20
2018-05-26T11:46:19.167Z,7.37
2018-05-26T11:48:46.112Z,11.10
2018-05-26T11:51:12.702Z,14.60
2018-05-26T11:53:39.541Z,8.90
2018-05-26T11:56:06.067Z,7.30
2018-05-26T11:58:33.532Z,16.97
2018-05-26T12:01:00.108Z,6.87
2018-05-26T12:03:27.684Z,5.60
2018-05-26T12:05:55.667Z,12.50
2018-05-26T12:08:22.166Z,11.73
2018-05-26T12:10:49.152Z,7.13
2018-05-26T12:13:15.834Z,9.30
2018-05-26T12:15:42.399Z,8.83
2018-05-26T12:18:08.973Z,11.70
2018-05-26T12:20:36.213Z,11.60
2018-05-26T12:23:03.785Z,10.90
2018-05-26T12:25:30.487Z,12.20
2018-05-26T12:27:57.183Z,7.23
2018-05-26T12:30:24.518Z,18.23
2018-05-26T12:32:53.565Z,12.27
2018-05-26T12:35:20.115Z,5.27
2018-05-26T12:37:47.090Z,9.83
2018-05-26T12:40:14.828Z,8.00
2018-05-26T12:42:41.720Z,9.70
2018-05-26T12:45:10.800Z,6.97
2018-05-26T12:47:38.565Z,8.27
2018-05-26T12:50:06.111Z,9.97
2018-05-26T12:52:33.068Z,12.80
2018-05-26T12:54:59.500Z,8.00
2018-05-26T12:57:26.161Z,7.50
2018-05-26T12:59:52.715Z,9.57
2018-05-26T13:02:19.357Z,13.97
2018-05-26T13:04:46.393Z,9.77
2018-05-26T13:07:16.206Z,6.83
2018-05-26T13:09:58.909Z,6.80
2018-05-26T13:12:26.963Z,7.83
2018-05-26T13:14:57.144Z,8.47
2018-05-26T13:17:26.159Z,7.87
2018-05-26T13:19:53.998Z,6.20
2018-05-26T13:22:25.872Z,6.23
2018-05-26T13:24:56.635Z,6.37
2018-05-26T13:27:28.958Z,7.67
2018-05-26T13:30:01.904Z,9.77
2018-05-26T13:32:32.635Z,5.13
2018-05-26T13:35:04.674Z,12.00
2018-05-26T13:37:42.877Z,14.40
2018-05-26T13:40:12.172Z,5.70
2018-05-26T13:42:40.522Z,6.43
2018-05-26T13:45:09.408Z,4.60
2018-05-26T13:47:37.001Z,5.40
2018-05-26T13:50:05.571Z,8.73
2018-05-26T13:52:34.731Z,8.43
2018-05-26T13:55:02.065Z,11.37
2018-05-26T13:57:28.762Z,6.93
2018-05-26T13:59:57.273Z,10.47
2018-05-26T14:02:24.254Z,9.53
2018-05-26T14:04:52.025Z,4.63
2018-05-26T14:07:18.669Z,8.63
2018-05-26T14:09:45.711Z,12.70
2018-05-26T14:12:12.375Z,7.07
2018-05-26T14:14:39.295Z,13.63
2018-05-26T14:17:07.149Z,5.80
2018-05-26T14:19:35.927Z,4.43
2018-05-26T14:22:02.972Z,11.63
2018-05-26T14:24:30.679Z,12.77
2018-05-26T14:26:58.382Z,8.83
2018-05-26T14:29:24.923Z,6.33
2018-05-26T14:31:52.024Z,8.53
2018-05-26T14:34:18.953Z,6.37
2018-05-26T14:36:45.773Z,8.10
2018-05-26T14:39:12.789Z,4.20
2018-05-26T14:41:39.351Z,12.70
2018-05-26T14:44:05.957Z,6.27
2018-05-26T14:46:32.995Z,7.80
2018-05-26T14:48:59.558Z,6.50
2018-05-26T14:51:27.929Z,8.27
2018-05-26T14:53:55.237Z,5.40
2018-05-26T14:56:22.833Z,5.30
2018-05-26T14:58:50.274Z,7.33
2018-05-26T15:01:17.849Z,8.10
2018-05-26T15:03:46.169Z,4.67
2018-05-26T15:06:13.802Z,3.43
2018-05-26T15:08:40.937Z,5.90
2018-05-26T15:11:09.693Z,4.93
2018-05-26T15:13:37.850Z,10.50
2018-05-26T15:16:05.710Z,3.63
2018-05-26T15:18:33.656Z,8.97
2018-05-26T15:21:00.759Z,3.63
2018-05-26T15:23:30.210Z,8.70
2018-05-26T15:25:58.887Z,4.70
2018-05-26T15:28:27.275Z,5.17
2018-05-26T15:31:05.726Z,6.27
2018-05-26T15:33:35.057Z,6.37
2018-05-26T15:36:03.183Z,5.70
2018-05-26T15:38:30.250Z,7.60
2018-05-26T15:40:56.835Z,5.80
2018-05-26T15:43:24.584Z,5.50
2018-05-26T15:45:52.254Z,7.07
2018-05-26T15:48:19.151Z,6.20
2018-05-26T15:50:47.910Z,6.00
2018-05-26T15:53:15.721Z,8.07
2018-05-26T15:55:46.488Z,5.70
2018-05-26T15:58:14.323Z,6.30
2018-05-26T16:00:42.504Z,8.13
2018-05-26T16:03:09.440Z,9.83
2018-05-26T16:08:09.165Z,8.30
2018-05-26T16:10:38.306Z,8.77
2018-05-26T16:13:04.852Z,11.47
2018-05-26T16:15:32.065Z,4.60
2018-05-26T16:17:59.740Z,3.97
2018-05-26T16:20:27.273Z,13.90
2018-05-26T16:22:54.102Z,8.43
2018-05-26T16:25:21.861Z,6.50
2018-05-26T16:27:48.618Z,8.93
2018-05-26T16:30:16.654Z,13.60
2018-05-26T16:32:43.642Z,8.10
2018-05-26T16:35:10.390Z,8.83
2018-05-26T16:37:37.425Z,9.00
2018-05-26T16:40:05.492Z,8.60
2018-05-26T16:42:32.508Z,7.87
2018-05-26T16:44:59.748Z,6.27
2018-05-26T16:47:26.903Z,8.73
2018-05-26T16:49:53.548Z,7.67
2018-05-26T16:52:21.659Z,5.30
2018-05-26T16:54:49.580Z,4.30
2018-05-26T16:57:17.776Z,4.27
2018-05-26T16:59:44.865Z,9.10
2018-05-26T17:04:46.545Z,4.50
2018-05-26T17:07:13.400Z,7.03
2018-05-26T17:09:41.883Z,6.03
2018-05-26T17:12:09.711Z,7.17
2018-05-26T17:14:36.365Z,5.67
2018-05-26T17:17:03.086Z,5.90
2018-05-26T17:19:29.935Z,5.70
2018-05-26T17:21:56.897Z,3.90
2018-05-26T17:24:24.493Z,5.77
2018-05-26T17:26:53.678Z,14.90
2018-05-26T17:29:21.121Z,5.27
2018-05-26T17:31:48.560Z,5.47
2018-05-26T17:34:17.511Z,4.30
2018-05-26T17:36:46.172Z,6.67
2018-05-26T17:39:13.590Z,5.27
2018-05-26T17:41:40.983Z,6.80
2018-05-26T17:44:08.175Z,4.60
2018-05-26T17:46:34.955Z,6.30
2018-05-26T17:49:02.184Z,7.50
2018-05-26T17:51:32.997Z,5.77
2018-05-26T17:54:00.917Z,4.60
2018-05-26T17:56:30.056Z,3.13
2018-05-26T17:58:57.729Z,6.70
2018-05-26T18:01:25.162Z,4.17
2018-05-26T18:03:54.167Z,3.93
2018-05-26T18:06:22.040Z,6.63
2018-05-26T18:08:52.635Z,3.87
2018-05-26T18:11:21.602Z,6.43
2018-05-26T18:13:48.382Z,4.93
2018-05-26T18:16:15.309Z,7.17
2018-05-26T18:18:42.094Z,14.87
2018-05-26T18:21:09.530Z,5.50
2018-05-26T18:23:38.174Z,4.67
2018-05-26T18:26:06.036Z,11.77
2018-05-26T18:28:34.198Z,15.27
2018-05-26T18:31:00.731Z,16.93
2018-05-26T18:33:28.977Z,10.83
2018-05-26T18:35:56.135Z,9.57
2018-05-26T18:38:23.746Z,11.73
2018-05-26T18:40:50.274Z,10.13
2018-05-26T18:43:18.532Z,13.20
2018-05-26T18:45:46.727Z,9.63
2018-05-26T18:48:13.259Z,5.43
2018-05-26T18:50:40.857Z,10.30
2018-05-26T18:53:09.118Z,9.63
2018-05-26T18:55:36.456Z,13.60
2018-05-26T18:58:03.325Z,13.77
2018-05-26T19:00:29.988Z,9.67
2018-05-26T19:02:56.812Z,7.70
2018-05-26T19:05:24.447Z,12.30
2018-05-26T19:07:51.814Z,11.80
2018-05-26T19:10:19.127Z,13.40
2018-05-26T19:12:45.765Z,19.03
2018-05-26T19:15:14.757Z,15.83
2018-05-26T19:17:42.131Z,22.90
2018-05-26T19:20:11.190Z,10.67
2018-05-26T19:22:40.758Z,20.27
2018-05-26T19:25:08.934Z,15.13
2018-05-26T19:27:35.951Z,14.57
2018-05-26T19:30:02.856Z,19.93
2018-05-26T19:32:30.556Z,20.10
2018-05-26T19:34:58.162Z,15.90
2018-05-26T19:37:27.242Z,14.63
2018-05-26T19:39:55.588Z,21.93
2018-05-26T19:42:23.159Z,16.33
2018-05-26T19:44:50.139Z,19.83
2018-05-26T19:47:18.183Z,23.70
2018-05-26T19:49:44.849Z,20.03
2018-05-26T19:52:11.758Z,19.03
2018-05-26T19:54:42.516Z,29.93
2018-05-26T19:57:10.097Z,30.27
2018-05-26T19:59:37.406Z,43.17
2018-05-26T20:02:04.295Z,24.17
2018-05-26T20:04:32.541Z,28.33
2018-05-26T20:06:59.893Z,21.83
2018-05-26T20:09:28.897Z,24.23
2018-05-26T20:12:00.438Z,19.93
2018-05-26T20:14:29.637Z,25.87
2018-05-26T20:16:56.354Z,29.03
2018-05-26T20:19:23.053Z,26.30
2018-05-26T20:21:50.017Z,25.20
2018-05-26T20:24:18.423Z,27.00
2018-05-26T20:26:46.015Z,28.70
2018-05-26T20:29:15.801Z,33.07
2018-05-26T20:31:42.981Z,32.17
2018-05-26T20:34:09.802Z,32.80
2018-05-26T20:36:36.740Z,29.37
2018-05-26T20:39:04.741Z,30.80
2018-05-26T20:41:31.648Z,29.07
2018-05-26T20:43:58.361Z,31.33
2018-05-26T20:46:25.830Z,32.67
2018-05-26T20:48:53.091Z,40.33
2018-05-26T20:51:20.610Z,37.77
2018-05-26T20:53:47.610Z,32.73
2018-05-26T20:56:14.786Z,29.53
2018-05-26T20:58:41.519Z,33.20
2018-05-26T21:01:08.700Z,30.77
2018-05-26T21:03:35.314Z,43.87
2018-05-26T21:06:02.824Z,42.53
2018-05-26T21:08:29.560Z,36.70
2018-05-26T21:10:56.487Z,40.50
2018-05-26T21:13:23.054Z,45.17
2018-05-26T21:15:50.000Z,40.80
2018-05-26T21:18:17.390Z,46.20
2018-05-26T21:20:44.630Z,66.43
2018-05-26T21:23:11.207Z,39.90
2018-05-26T21:25:39.138Z,43.40
2018-05-26T21:28:05.767Z,49.63
2018-05-26T21:30:33.726Z,56.27
2018-05-26T21:33:01.591Z,48.50
2018-05-26T21:35:30.619Z,49.67
2018-05-26T21:37:57.198Z,50.83
2018-05-26T21:40:24.193Z,42.50
2018-05-26T21:42:52.632Z,39.00
2018-05-26T21:45:19.464Z,46.47
2018-05-26T21:47:47.945Z,39.20
2018-05-26T21:50:18.159Z,47.37
2018-05-26T21:52:45.592Z,42.60
2018-05-26T21:55:13.264Z,49.20
2018-05-26T21:57:42.831Z,48.73
2018-05-26T22:00:09.804Z,56.23
2018-05-26T22:02:38.308Z,63.40
2018-05-26T22:05:06.362Z,54.53
2018-05-26T22:07:33.364Z,74.03
2018-05-26T22:10:00.264Z,57.07
2018-05-26T22:12:27.049Z,71.17
2018-05-26T22:14:54.361Z,57.03
2018-05-26T22:17:20.893Z,54.20
2018-05-26T22:19:47.370Z,62.27
2018-05-26T22:22:14.059Z,63.43
2018-05-26T22:24:41.510Z,81.60
2018-05-26T22:27:09.711Z,69.83
2018-05-26T22:29:36.368Z,79.33
2018-05-26T22:32:02.775Z,81.17
2018-05-26T22:34:29.304Z,81.60
2018-05-26T22:36:55.981Z,82.00
2018-05-26T22:39:22.750Z,102.13
2018-05-26T22:41:49.239Z,115.40
2018-05-26T22:44:15.937Z,107.00
2018-05-26T22:46:42.495Z,113.33
2018-05-26T22:49:09.646Z,89.90
2018-05-26T22:51:36.306Z,79.33
2018-05-26T22:54:03.846Z,81.83
2018-05-26T22:56:30.715Z,79.10
2018-05-26T22:58:58.263Z,88.50
2018-05-26T23:01:25.600Z,98.33
2018-05-26T23:03:53.906Z,95.90
2018-05-26T23:06:25.018Z,110.33
2018-05-26T23:08:52.911Z,143.43
2018-05-26T23:11:23.511Z,94.00
2018-05-26T23:13:51.181Z,197.03
2018-05-26T23:16:17.773Z,146.23
2018-05-26T23:18:44.539Z,186.37
2018-05-26T23:21:12.582Z,182.50
2018-05-26T23:23:39.734Z,258.07
2018-05-26T23:26:06.198Z,224.57
2018-05-26T23:28:32.634Z,159.20
2018-05-26T23:30:59.151Z,130.57
2018-05-26T23:33:25.751Z,245.37
2018-05-26T23:35:52.237Z,149.03
2018-05-26T23:38:19.161Z,135.40
2018-05-26T23:40:45.855Z,122.93
2018-05-26T23:43:12.425Z,132.60
2018-05-26T23:45:39.365Z,105.57
2018-05-26T23:48:06.784Z,106.37
2018-05-26T23:50:33.241Z,98.50
2018-05-26T23:52:59.851Z,112.77
2018-05-26T23:55:26.463Z,96.57
2018-05-26T23:57:54.552Z,106.20
